createdAt,value
2022-12-01T00:02:18.444Z,102072.35
2022-12-01T00:04:53.389Z,102072.38
2022-12-01T00:07:25.069Z,102072.73
2022-12-01T00:10:14.274Z,102075.78
2022-12-01T00:12:45.849Z,102067.23
2022-12-01T00:15:17.541Z,102065.70
2022-12-01T00:17:49.599Z,102067.74
2022-12-01T00:20:25.590Z,102062.60
2022-12-01T00:22:57.192Z,102062.12
2022-12-01T00:25:29.995Z,102062.71
2022-12-01T00:28:01.634Z,102057.80
2022-12-01T00:30:33.297Z,102059.45
2022-12-01T00:33:07.436Z,102059.71
2022-12-01T00:35:41.142Z,102057.69
2022-12-01T00:38:12.969Z,102061.80
2022-12-01T00:40:44.836Z,102059.27
2022-12-01T00:43:16.414Z,102058.25
2022-12-01T00:45:53.133Z,102060.02
2022-12-01T00:48:27.181Z,102056.48
2022-12-01T00:50:59.480Z,102057.77
2022-12-01T00:53:31.479Z,102052.79
2022-12-01T00:56:03.211Z,102054.37
2022-12-01T00:58:34.969Z,102053.86
2022-12-01T01:01:06.891Z,102050.42
2022-12-01T01:03:41.551Z,102056.06
2022-12-01T01:06:14.340Z,102048.89
2022-12-01T01:08:46.256Z,102049.30
2022-12-01T01:11:18.006Z,102049.80
2022-12-01T01:13:49.765Z,102050.93
2022-12-01T01:16:24.440Z,102056.02
2022-12-01T01:18:58.053Z,102050.84
2022-12-01T01:21:30.493Z,102047.98
2022-12-01T01:24:02.218Z,102045.76
2022-12-01T01:26:35.611Z,102049.04
2022-12-01T01:29:08.702Z,102047.33
2022-12-01T01:31:40.459Z,102048.98
2022-12-01T01:34:12.087Z,102048.73
2022-12-01T01:36:43.875Z,102043.75
2022-12-01T01:39:15.487Z,102047.80
2022-12-01T01:41:47.146Z,102049.14
2022-12-01T01:44:48.649Z,102044.91
2022-12-01T01:47:25.488Z,102044.38
2022-12-01T01:49:59.522Z,102042.48
2022-12-01T01:52:31.208Z,102041.53
2022-12-01T01:55:03.257Z,102040.39
2022-12-01T01:57:36.014Z,102037.64
2022-12-01T02:00:13.367Z,102038.70
2022-12-01T02:02:47.166Z,102038.92
2022-12-01T02:05:23.629Z,102036.57
2022-12-01T02:07:57.247Z,102034.21
2022-12-01T02:10:39.136Z,102041.08
2022-12-01T02:13:24.071Z,102034.83
2022-12-01T02:16:05.015Z,102039.48
2022-12-01T02:18:46.097Z,102037.64
2022-12-01T02:21:43.396Z,102034.77
2022-12-01T02:24:51.189Z,102037.48
2022-12-01T02:27:38.408Z,102038.52
2022-12-01T02:30:24.352Z,102039.95
2022-12-01T02:33:08.520Z,102044.37
2022-12-01T02:35:48.192Z,102046.73
2022-12-01T02:38:26.199Z,102048.81
2022-12-01T02:41:03.939Z,102044.81
2022-12-01T02:43:45.442Z,102041.28
2022-12-01T02:46:21.908Z,102044.41
2022-12-01T02:48:57.391Z,102038.33
2022-12-01T02:51:32.827Z,102035.64
2022-12-01T02:54:08.325Z,102035.33
2022-12-01T02:56:40.138Z,102033.77
2022-12-01T02:59:14.081Z,102029.84
2022-12-01T03:02:02.127Z,102030.08
2022-12-01T03:04:51.806Z,102034.47
2022-12-01T03:07:44.156Z,102029.29
2022-12-01T03:10:27.677Z,102031.08
2022-12-01T03:13:17.523Z,102034.66
2022-12-01T03:15:56.264Z,102032.42
2022-12-01T03:18:34.264Z,102028.13
2022-12-01T03:21:14.707Z,102029.56
2022-12-01T03:23:51.444Z,102030.25
2022-12-01T03:26:26.104Z,102028.43
2022-12-01T03:29:02.304Z,102028.42
2022-12-01T03:31:39.412Z,102025.46
2022-12-01T03:34:18.084Z,102022.89
2022-12-01T03:36:54.458Z,102023.69
2022-12-01T03:39:32.304Z,102022.87
2022-12-01T03:42:08.767Z,102020.94
2022-12-01T03:44:46.270Z,102021.67
2022-12-01T03:47:20.838Z,102018.04
2022-12-01T03:49:54.749Z,102018.48
2022-12-01T03:52:38.814Z,102012.11
2022-12-01T03:55:15.101Z,102007.40
2022-12-01T03:57:52.681Z,102009.83
2022-12-01T04:00:31.450Z,102010.67
2022-12-01T04:03:04.946Z,102012.21
2022-12-01T04:05:37.494Z,102009.83
2022-12-01T04:08:09.361Z,102011.89
2022-12-01T04:10:43.592Z,102014.51
2022-12-01T04:13:23.015Z,102015.96
2022-12-01T04:15:56.998Z,102011.72
2022-12-01T04:18:28.661Z,102012.27
2022-12-01T04:21:00.369Z,102015.32
2022-12-01T04:23:49.606Z,102014.48
2022-12-01T04:26:21.372Z,102018.08
2022-12-01T04:28:54.989Z,102016.95
2022-12-01T04:31:27.036Z,102019.55
2022-12-01T04:34:00.154Z,102018.86
2022-12-01T04:36:33.717Z,102018.82
2022-12-01T04:39:06.019Z,102020.34
2022-12-01T04:41:37.602Z,102020.72
2022-12-01T04:44:10.105Z,102022.59
2022-12-01T04:46:41.871Z,102021.79
2022-12-01T04:49:13.579Z,102020.45
2022-12-01T04:51:45.325Z,102016.85
2022-12-01T04:54:18.321Z,102015.04
2022-12-01T04:56:50.104Z,102013.92
2022-12-01T04:59:22.053Z,102015.14
2022-12-01T05:01:53.779Z,102021.62
2022-12-01T05:04:25.453Z,102025.75
2022-12-01T05:06:57.966Z,102028.13
2022-12-01T05:09:32.454Z,102029.69
2022-12-01T05:12:04.105Z,102026.87
2022-12-01T05:14:35.746Z,102031.85
2022-12-01T05:17:09.356Z,102032.42
2022-12-01T05:19:58.575Z,102033.24
2022-12-01T05:23:03.366Z,102035.19
2022-12-01T05:25:21.896Z,102034.83
2022-12-01T05:27:53.755Z,102033.89
2022-12-01T05:30:28.509Z,102037.83
2022-12-01T05:33:01.247Z,102039.08
2022-12-01T05:35:33.692Z,102036.98
2022-12-01T05:38:07.970Z,102036.05
2022-12-01T05:40:40.329Z,102037.67
2022-12-01T05:43:12.029Z,102035.77
2022-12-01T05:45:43.899Z,102038.69
2022-12-01T05:48:15.576Z,102036.07
2022-12-01T05:50:47.291Z,102039.91
2022-12-01T05:53:19.471Z,102042.65
2022-12-01T05:55:54.675Z,102046.16
2022-12-01T05:58:26.350Z,102042.89
2022-12-01T06:00:58.004Z,102040.08
2022-12-01T06:03:29.741Z,102042.23
2022-12-01T06:06:01.409Z,102041.40
2022-12-01T06:08:33.075Z,102039.38
2022-12-01T06:11:04.755Z,102039.15
2022-12-01T06:13:36.433Z,102039.62
2022-12-01T06:16:10.971Z,102037.72
2022-12-01T06:18:42.675Z,102034.97
2022-12-01T06:21:14.310Z,102037.45
2022-12-01T06:23:46.186Z,102039.55
2022-12-01T06:26:17.777Z,102037.64
2022-12-01T06:28:49.454Z,102041.04
2022-12-01T06:31:21.488Z,102043.41
2022-12-01T06:33:53.251Z,102043.36
2022-12-01T06:36:24.950Z,102049.23
2022-12-01T06:38:56.778Z,102046.94
2022-12-01T06:41:28.360Z,102050.05
2022-12-01T06:44:00.056Z,102055.48
2022-12-01T06:46:32.158Z,102055.41
2022-12-01T06:49:04.444Z,102058.29
2022-12-01T06:51:36.164Z,102053.11
2022-12-01T06:54:09.414Z,102052.23
2022-12-01T06:56:42.947Z,102053.77
2022-12-01T06:59:14.900Z,102054.61
2022-12-01T07:01:47.142Z,102059.73
2022-12-01T07:04:19.495Z,102058.60
2022-12-01T07:06:51.196Z,102060.30
2022-12-01T07:09:23.159Z,102065.25
2022-12-01T07:11:54.861Z,102067.80
2022-12-01T07:14:27.943Z,102068.42
2022-12-01T07:16:59.917Z,102068.83
2022-12-01T07:19:31.792Z,102072.75
2022-12-01T07:22:03.463Z,102073.78
2022-12-01T07:25:09.308Z,102075.98
2022-12-01T07:27:46.741Z,102079.21
2022-12-01T07:30:32.956Z,102077.81
2022-12-01T07:33:21.423Z,102081.60
2022-12-01T07:35:55.878Z,102081.33
2022-12-01T07:38:28.275Z,102083.04
2022-12-01T07:41:06.725Z,102077.56
2022-12-01T07:43:38.735Z,102083.58
2022-12-01T07:46:18.772Z,102079.65
2022-12-01T07:48:54.292Z,102077.92
2022-12-01T07:51:26.858Z,102078.14
2022-12-01T07:54:02.636Z,102078.00
2022-12-01T07:56:34.525Z,102080.10
2022-12-01T07:59:06.137Z,102086.36
2022-12-01T08:01:42.931Z,102083.80
2022-12-01T08:04:16.180Z,102081.56
2022-12-01T08:06:48.144Z,102082.16
2022-12-01T08:09:19.825Z,102084.84
2022-12-01T08:11:51.601Z,102087.23
2022-12-01T08:14:23.285Z,102086.38
2022-12-01T08:16:54.931Z,102086.05
2022-12-01T08:19:27.779Z,102086.11
2022-12-01T08:21:59.526Z,102087.86
2022-12-01T08:24:31.213Z,102090.82
2022-12-01T08:27:02.941Z,102089.27
2022-12-01T08:29:36.157Z,102092.26
2022-12-01T08:32:16.969Z,102092.94
2022-12-01T08:34:53.444Z,102086.98
2022-12-01T08:37:25.549Z,102087.83
2022-12-01T08:39:57.118Z,102088.99
2022-12-01T08:42:28.894Z,102087.84
2022-12-01T08:45:00.566Z,102087.38
2022-12-01T08:47:32.479Z,102091.54
2022-12-01T08:50:05.200Z,102085.63
2022-12-01T08:53:21.721Z,102085.27
2022-12-01T08:55:59.634Z,102082.91
2022-12-01T08:58:32.065Z,102082.00
2022-12-01T09:01:12.284Z,102085.46
2022-12-01T09:03:44.869Z,102084.57
2022-12-01T09:06:20.253Z,102081.89
2022-12-01T09:08:52.027Z,102082.67
2022-12-01T09:11:23.746Z,102079.19
2022-12-01T09:13:55.460Z,102080.13
2022-12-01T09:16:27.247Z,102080.38
2022-12-01T09:18:59.067Z,102080.13
2022-12-01T09:21:33.636Z,102076.59
2022-12-01T09:24:06.857Z,102073.63
2022-12-01T09:26:38.450Z,102073.73
2022-12-01T09:29:13.614Z,102072.52
2022-12-01T09:31:45.651Z,102069.25
2022-12-01T09:34:18.734Z,102067.49
2022-12-01T09:36:50.801Z,102068.36
2022-12-01T09:39:23.275Z,102067.53
2022-12-01T09:41:58.476Z,102065.48
2022-12-01T09:44:43.159Z,102064.08
2022-12-01T09:47:19.295Z,102066.02
2022-12-01T09:49:56.918Z,102070.81
2022-12-01T09:52:30.791Z,102068.95
2022-12-01T09:55:03.238Z,102071.34
2022-12-01T09:57:37.274Z,102067.23
2022-12-01T10:00:16.176Z,102069.55
2022-12-01T10:02:53.580Z,102065.44
2022-12-01T10:05:32.659Z,102063.94
2022-12-01T10:08:07.179Z,102061.54
2022-12-01T10:10:42.027Z,102062.86
2022-12-01T10:13:20.858Z,102063.13
2022-12-01T10:15:58.669Z,102059.22
2022-12-01T10:18:43.413Z,102055.71
2022-12-01T10:21:30.715Z,102059.48
2022-12-01T10:24:24.379Z,102054.99
2022-12-01T10:27:03.689Z,102053.18
2022-12-01T10:29:47.597Z,102051.86
2022-12-01T10:32:23.541Z,102053.33
2022-12-01T10:34:55.144Z,102047.95
2022-12-01T10:37:32.822Z,102046.14
2022-12-01T10:40:05.077Z,102043.16
2022-12-01T10:42:42.357Z,102042.03
2022-12-01T10:45:19.578Z,102037.13
2022-12-01T10:48:16.544Z,102037.96
2022-12-01T10:50:50.339Z,102035.67
2022-12-01T10:53:29.927Z,102030.89
2022-12-01T10:56:11.387Z,102030.95
2022-12-01T10:58:49.693Z,102028.10
2022-12-01T11:01:26.848Z,102029.31
2022-12-01T11:04:02.622Z,102026.91
2022-12-01T11:06:36.516Z,102025.29
2022-12-01T11:09:24.386Z,102022.86
2022-12-01T11:12:00.367Z,102021.30
2022-12-01T11:14:44.037Z,102018.52
2022-12-01T11:17:27.364Z,102017.98
2022-12-01T11:19:59.874Z,102018.67
2022-12-01T11:22:33.098Z,102019.33
2022-12-01T11:25:19.553Z,102019.36
2022-12-01T11:27:54.882Z,102017.73
2022-12-01T11:30:34.080Z,102017.83
2022-12-01T11:33:06.414Z,102015.79
2022-12-01T11:35:39.896Z,102019.68
2022-12-01T11:38:30.447Z,102016.38
2022-12-01T11:41:02.379Z,102014.36
2022-12-01T11:43:38.283Z,102013.88
2022-12-01T11:46:11.565Z,102017.20
2022-12-01T11:48:57.776Z,102014.32
2022-12-01T11:51:37.369Z,102015.05
2022-12-01T11:54:17.332Z,102012.59
2022-12-01T11:57:25.367Z,102013.32
2022-12-01T11:59:45.121Z,102015.09
2022-12-01T12:02:28.387Z,102016.06
2022-12-01T12:05:14.237Z,102012.98
2022-12-01T12:07:58.832Z,102010.20
2022-12-01T12:10:42.839Z,102010.66
2022-12-01T12:13:53.615Z,102009.08
2022-12-01T12:16:36.116Z,102006.83
2022-12-01T12:19:33.845Z,102004.21
2022-12-01T12:22:20.738Z,102007.00
2022-12-01T12:25:14.364Z,101997.98
2022-12-01T12:27:54.482Z,101999.59
2022-12-01T12:30:33.034Z,101998.66
2022-12-01T12:33:30.518Z,102000.63
2022-12-01T12:36:11.610Z,102000.90
2022-12-01T12:38:52.184Z,102000.69
2022-12-01T12:41:35.045Z,102001.38
2022-12-01T12:44:18.452Z,102001.52
2022-12-01T12:46:58.874Z,102002.70
2022-12-01T12:49:39.242Z,102000.88
2022-12-01T12:52:17.546Z,101996.66
2022-12-01T12:54:53.451Z,101996.17
2022-12-01T12:57:49.292Z,101993.73
2022-12-01T13:00:25.752Z,101992.35
2022-12-01T13:03:09.003Z,101989.30
2022-12-01T13:05:47.106Z,101986.69
2022-12-01T13:08:24.486Z,101983.27
2022-12-01T13:11:00.418Z,101985.27
2022-12-01T13:13:38.324Z,101985.86
2022-12-01T13:16:15.878Z,101984.14
2022-12-01T13:18:51.684Z,101986.34
2022-12-01T13:21:24.884Z,101983.10
2022-12-01T13:23:56.758Z,101982.46
2022-12-01T13:26:28.874Z,101980.14
2022-12-01T13:29:23.522Z,101981.50
2022-12-01T13:31:56.495Z,101985.34
2022-12-01T13:34:34.628Z,101984.42
2022-12-01T13:37:06.936Z,101986.63
2022-12-01T13:39:40.641Z,101986.27
2022-12-01T13:42:25.820Z,101987.71
2022-12-01T13:45:01.187Z,101983.05
2022-12-01T13:47:53.877Z,101984.27
2022-12-01T13:50:58.740Z,101983.47
2022-12-01T13:53:37.395Z,101985.87
2022-12-01T13:56:27.811Z,101981.49
2022-12-01T13:58:59.465Z,101982.95
2022-12-01T14:01:48.547Z,101978.36
2022-12-01T14:04:33.531Z,101979.80
2022-12-01T14:07:24.367Z,101982.15
2022-12-01T14:10:13.121Z,101989.38
2022-12-01T14:12:47.412Z,101985.64
2022-12-01T14:15:34.164Z,101988.60
2022-12-01T14:18:31.097Z,101988.81
2022-12-01T14:21:05.563Z,101991.27
2022-12-01T14:23:39.664Z,101995.11
2022-12-01T14:26:17.977Z,101993.77
2022-12-01T14:29:25.241Z,101991.84
2022-12-01T14:32:20.674Z,101993.02
2022-12-01T14:35:00.514Z,101991.80
2022-12-01T14:37:40.612Z,101991.56
2022-12-01T14:40:25.509Z,101992.39
2022-12-01T14:43:16.592Z,101992.05
2022-12-01T14:46:04.136Z,101990.90
2022-12-01T14:48:40.471Z,101989.95
2022-12-01T14:51:20.709Z,101989.33
2022-12-01T14:53:55.581Z,101983.27
2022-12-01T14:56:29.487Z,101981.93
2022-12-01T14:59:02.942Z,101979.35
2022-12-01T15:01:38.318Z,101980.67
2022-12-01T15:04:10.273Z,101979.66
2022-12-01T15:06:42.409Z,101976.16
2022-12-01T15:12:24.898Z,101968.19
2022-12-01T15:14:56.911Z,101972.44
2022-12-01T15:17:37.776Z,101971.84
2022-12-01T15:20:30.111Z,101971.85
2022-12-01T15:23:09.084Z,101970.41
2022-12-01T15:25:45.138Z,101968.50
2022-12-01T15:28:19.838Z,101968.73
2022-12-01T15:30:55.727Z,101969.25
2022-12-01T15:33:36.932Z,101973.17
2022-12-01T15:36:11.837Z,101969.86
2022-12-01T15:38:45.249Z,101973.77
2022-12-01T15:41:28.996Z,101972.42
2022-12-01T15:44:03.772Z,101971.00
2022-12-01T15:46:36.354Z,101977.02
2022-12-01T15:49:17.710Z,101975.79
2022-12-01T15:51:52.204Z,101974.90
2022-12-01T15:54:26.597Z,101976.48
2022-12-01T15:57:03.520Z,101975.83
2022-12-01T15:59:40.234Z,101978.20
2022-12-01T16:02:27.147Z,101977.23
2022-12-01T16:05:19.081Z,101978.88
2022-12-01T16:08:12.531Z,101977.66
2022-12-01T16:10:42.530Z,101979.34
2022-12-01T16:13:44.557Z,101979.97
2022-12-01T16:16:48.135Z,101977.59
2022-12-01T16:19:27.630Z,101977.56
2022-12-01T16:22:03.282Z,101977.45
2022-12-01T16:24:37.521Z,101978.10
2022-12-01T16:27:18.636Z,101975.38
2022-12-01T16:29:53.173Z,101974.94
2022-12-01T16:32:29.186Z,101973.39
2022-12-01T16:35:04.309Z,101973.20
2022-12-01T16:37:36.089Z,101974.45
2022-12-01T16:40:16.941Z,101976.27
2022-12-01T16:42:51.139Z,101972.75
2022-12-01T16:45:26.487Z,101971.61
2022-12-01T16:47:58.118Z,101975.05
2022-12-01T16:50:29.993Z,101975.38
2022-12-01T16:53:01.826Z,101977.77
2022-12-01T16:55:41.416Z,101979.33
2022-12-01T16:58:13.137Z,101982.09
2022-12-01T17:00:44.967Z,101984.38
2022-12-01T17:03:18.347Z,101984.80
2022-12-01T17:05:50.507Z,101984.63
2022-12-01T17:08:22.528Z,101981.86
2022-12-01T17:10:54.991Z,101985.65
2022-12-01T17:13:27.326Z,101983.14
2022-12-01T17:15:59.206Z,101979.02
2022-12-01T17:18:31.048Z,101977.84
2022-12-01T17:21:05.149Z,101978.30
2022-12-01T17:23:38.838Z,101977.70
2022-12-01T17:26:13.733Z,101975.15
2022-12-01T17:28:45.393Z,101974.78
2022-12-01T17:31:17.692Z,101975.38
2022-12-01T17:33:49.480Z,101973.04
2022-12-01T17:36:21.369Z,101973.63
2022-12-01T17:38:53.037Z,101972.73
2022-12-01T17:41:25.551Z,101975.79
2022-12-01T17:43:57.292Z,101974.42
2022-12-01T17:46:30.155Z,101975.48
2022-12-01T17:49:08.566Z,101975.64
2022-12-01T17:51:40.228Z,101977.46
2022-12-01T17:54:11.922Z,101981.50
2022-12-01T17:56:45.894Z,101976.20
2022-12-01T17:59:17.787Z,101978.55
2022-12-01T18:01:49.544Z,101981.81
2022-12-01T18:04:21.367Z,101982.09
2022-12-01T18:06:54.589Z,101984.63
2022-12-01T18:09:26.545Z,101981.84
2022-12-01T18:11:58.326Z,101986.11
2022-12-01T18:14:30.026Z,101983.19
2022-12-01T18:17:07.619Z,101989.70
2022-12-01T18:19:40.676Z,101987.20
2022-12-01T18:22:12.368Z,101989.84
2022-12-01T18:24:44.091Z,101987.32
2022-12-01T18:27:15.725Z,101983.46
2022-12-01T18:29:48.287Z,101986.02
2022-12-01T18:32:19.907Z,101987.54
2022-12-01T18:34:51.956Z,101982.74
2022-12-01T18:37:23.887Z,101981.37
2022-12-01T18:39:57.377Z,101983.88
2022-12-01T18:42:30.861Z,101981.66
2022-12-01T18:45:02.618Z,101983.12
2022-12-01T18:47:34.229Z,101983.67
2022-12-01T18:50:12.589Z,101982.20
2022-12-01T18:52:44.301Z,101986.17
2022-12-01T18:55:16.087Z,101984.87
2022-12-01T18:57:47.775Z,101986.48
2022-12-01T19:00:24.052Z,101986.77
2022-12-01T19:02:55.748Z,101988.44
2022-12-01T19:05:27.814Z,101986.77
2022-12-01T19:07:59.583Z,101987.50
2022-12-01T19:10:31.314Z,101985.58
2022-12-01T19:13:03.246Z,101984.14
2022-12-01T19:15:36.946Z,101986.69
2022-12-01T19:18:08.992Z,101986.46
2022-12-01T19:20:43.335Z,101983.11
2022-12-01T19:23:15.255Z,101980.09
2022-12-01T19:25:46.974Z,101978.96
2022-12-01T19:28:18.723Z,101976.88
2022-12-01T19:30:50.698Z,101977.00
2022-12-01T19:33:24.771Z,101974.48
2022-12-01T19:35:56.718Z,101970.83
2022-12-01T19:38:28.980Z,101971.16
2022-12-01T19:41:00.720Z,101970.97
2022-12-01T19:43:34.213Z,101972.09
2022-12-01T19:46:09.440Z,101969.20
2022-12-01T19:48:44.276Z,101969.94
2022-12-01T19:51:21.020Z,101972.09
2022-12-01T19:53:53.213Z,101970.18
2022-12-01T19:56:25.896Z,101969.42
2022-12-01T19:58:58.464Z,101976.87
2022-12-01T20:01:30.330Z,101968.95
2022-12-01T20:04:02.471Z,101972.90
2022-12-01T20:06:36.755Z,101972.90
2022-12-01T20:09:09.883Z,101972.41
2022-12-01T20:11:42.582Z,101971.43
2022-12-01T20:14:15.448Z,101971.45
2022-12-01T20:16:47.188Z,101973.45
2022-12-01T20:19:28.027Z,101970.59
2022-12-01T20:25:59.054Z,101972.75
2022-12-01T20:28:31.935Z,101972.21
2022-12-01T20:31:04.449Z,101972.75
2022-12-01T20:33:39.959Z,101969.96
2022-12-01T20:36:12.166Z,101965.63
2022-12-01T20:38:44.038Z,101966.85
2022-12-01T20:41:15.693Z,101966.41
2022-12-01T20:43:47.484Z,101971.41
2022-12-01T20:46:21.362Z,101966.67
2022-12-01T20:48:55.105Z,101969.83
2022-12-01T20:51:26.870Z,101968.57
2022-12-01T20:54:26.053Z,101970.64
2022-12-01T20:56:50.270Z,101971.80
2022-12-01T20:59:21.994Z,101971.07
2022-12-01T21:01:56.576Z,101971.60
2022-12-01T21:04:31.085Z,101970.91
2022-12-01T21:07:02.915Z,101971.96
2022-12-01T21:09:34.891Z,101972.61
2022-12-01T21:12:32.151Z,101974.48
2022-12-01T21:15:09.927Z,101974.52
2022-12-01T21:17:44.211Z,101972.39
2022-12-01T21:20:26.063Z,101975.53
2022-12-01T21:23:25.011Z,101973.81
2022-12-01T21:26:21.041Z,101970.52
2022-12-01T21:29:04.857Z,101962.44
2022-12-01T21:32:52.426Z,101965.25
2022-12-01T21:35:39.537Z,101966.06
2022-12-01T21:38:20.439Z,101964.05
2022-12-01T21:40:53.620Z,101961.39
2022-12-01T21:43:26.739Z,101962.16
2022-12-01T21:46:03.098Z,101959.02
2022-12-01T21:48:37.800Z,101956.56
2022-12-01T21:51:19.713Z,101953.04
2022-12-01T21:53:52.370Z,101949.94
2022-12-01T21:56:25.474Z,101952.34
2022-12-01T21:59:00.557Z,101954.64
2022-12-01T22:01:33.913Z,101951.99
2022-12-01T22:04:15.631Z,101952.73
2022-12-01T22:06:52.137Z,101950.40
2022-12-01T22:09:27.012Z,101951.12
2022-12-01T22:12:01.259Z,101947.40
2022-12-01T22:14:36.527Z,101950.08
2022-12-01T22:17:19.957Z,101949.23
2022-12-01T22:19:56.989Z,101950.14
2022-12-01T22:22:32.618Z,101949.12
2022-12-01T22:25:26.385Z,101950.13
2022-12-01T22:28:01.345Z,101952.10
2022-12-01T22:30:33.212Z,101954.98
2022-12-01T22:33:06.557Z,101952.80
2022-12-01T22:35:42.063Z,101948.56
2022-12-01T22:38:33.533Z,101949.50
2022-12-01T22:41:07.920Z,101951.68
2022-12-01T22:43:46.550Z,101950.11
2022-12-01T22:46:24.640Z,101954.09
2022-12-01T22:48:57.912Z,101954.52
2022-12-01T22:51:32.656Z,101951.68
2022-12-01T22:54:23.404Z,101956.30
2022-12-01T22:57:03.015Z,101953.31
2022-12-01T22:59:40.123Z,101954.50
2022-12-01T23:02:21.527Z,101953.44
2022-12-01T23:04:57.297Z,101949.80
2022-12-01T23:07:35.347Z,101949.19
2022-12-01T23:10:13.531Z,101946.15
2022-12-01T23:12:46.745Z,101945.34
2022-12-01T23:15:33.779Z,101939.20
2022-12-01T23:18:15.199Z,101936.61
2022-12-01T23:20:49.781Z,101930.16
2022-12-01T23:23:27.629Z,101926.13
2022-12-01T23:26:02.340Z,101923.02
2022-12-01T23:28:35.974Z,101923.45
2022-12-01T23:31:08.008Z,101922.23
2022-12-01T23:33:39.665Z,101920.49
2022-12-01T23:36:16.394Z,101919.67
2022-12-01T23:38:57.126Z,101918.62
2022-12-01T23:41:33.704Z,101921.25
2022-12-01T23:44:13.234Z,101918.63
2022-12-01T23:46:45.375Z,101913.75
2022-12-01T23:49:20.664Z,101914.85
2022-12-01T23:52:00.202Z,101914.55
2022-12-01T23:54:35.261Z,101912.60
2022-12-01T23:57:17.499Z,101912.54
2022-12-01T23:59:49.544Z,101910.85
